aviador You're here:

PAZK Decoded Metar

EUREKA in AK, USA
Report Time2017-10-23 10:56:00
UTC Time2017-10-23 11:34:22
Flight Rules vfr VFR
Wind230° at 04 kt
W.Rank230° ranks 11
Current wind is below 230° avg. (6.9)
Visibility9999 m
Phenomena:N/A
Clouds:N/A
Expected CloudBase > 800 ft AGL from Temp-Dew spread
CeilingNone
Temp-13°C (ISA -21)
Dew Point-15°C (85% RH)
AAT-17.8°C
QNH1006 hPa
Density Alt892 ft
Elevation3,291 ft
Report Wrong Elevation
Raw Report
PAZK 231056Z AUTO 23004KT 10SM CLR M13/M15 A2972 RMK AO2 SLP139
T11331150 FZRANO=

Extra information for PAZK:More info

Metar Taf Metar & Taf Last 4 Metars F.Rules Stats Wind Profile Meteogram Temp Stats Airport Information Weather charts Add Link Nearby VenuesMetar ALERT Operation Metar Decoded Social comments

AIRNAV info for PAZK